WetterOnline ( https://www.wetteronline.de )

Wetter aktuell Ronneby

Aktuelles Wetter: Ronneby (58m)

6-stündlich | Neueste Meldungen
Ortszeit Temperatur Wetter
Mo, 14.10. 2:00 13.4° C leichte Schauer
So, 13.10. 20:00 11.3° C leichte Schauer
So, 13.10. 14:00 13.3° C leicht bewölkt
So, 13.10. 8:00 8.4° C wolkig
So, 13.10. 2:00 9.8° C wolkenlos
Sa, 12.10. 20:00 11.2° C wolkenlos
Sa, 12.10. 14:00 13.6° C leicht bewölkt
Sa, 12.10. 8:00 11.3° C bedeckt
Ortszeit Temperatur Wetter
Mo, 14.10. 4:20 14° C leicht bewölkt
Mo, 14.10. 4:00 13.9° C leicht bewölkt
Mo, 14.10. 3:50 14° C bewölkt
Mo, 14.10. 3:20 14° C leichte Schauer
Mo, 14.10. 3:00 13.7° C leichte Schauer
Mo, 14.10. 2:50 14° C leichte Schauer
Mo, 14.10. 2:20 13° C bewölkt
Mo, 14.10. 2:00 13.4° C leichte Schauer
Mo, 14.10. 1:20 13° C bedeckt
Mo, 14.10. 1:00 12.6° C bedeckt
Ortszeit Relative Feuchte Sichtweite
Mo, 14.10. 2:00 100% 6 km
So, 13.10. 20:00 99% 15 km
So, 13.10. 14:00 83% 30 km
So, 13.10. 8:00 100% 13 km
So, 13.10. 2:00 97% 20 km
Sa, 12.10. 20:00 94% 35 km
Sa, 12.10. 14:00 86% 30 km
Sa, 12.10. 8:00 99% 35 km
Ortszeit Relative Feuchte Sichtweite
Mo, 14.10. 4:20 100% >10 km
Mo, 14.10. 4:00 100% 11 km
Mo, 14.10. 3:50 100% >10 km
Mo, 14.10. 3:20 100% 7 km
Mo, 14.10. 3:00 100% 9 km
Mo, 14.10. 2:50 100% 9 km
Mo, 14.10. 2:20 100% 7 km
Mo, 14.10. 2:00 100% 6 km
Mo, 14.10. 1:20 100% 7 km
Mo, 14.10. 1:00 100% 9 km
Ortszeit Niederschlagsmenge Niederschlagsart
Mo, 14.10. 2:00 12 l/m2 in 6 Std. Regenschauer
So, 13.10. 20:00 0.1 l/m2 in 12 Std. Regenschauer
So, 13.10. 14:00 0.0 l/m2 in 6 Std. -
So, 13.10. 8:00 0.0 l/m2 in 12 Std. -
So, 13.10. 2:00 0.0 l/m2 in 6 Std. -
Sa, 12.10. 20:00 4 l/m2 in 12 Std. -
Sa, 12.10. 14:00 4 l/m2 in 6 Std. Regenschauer
Sa, 12.10. 8:00 11 l/m2 in 12 Std. Regenschauer
Ortszeit Niederschlagsmenge Niederschlagsart
Mo, 14.10. 4:20 keine Meldung -
Mo, 14.10. 4:00 0.5 l/m2 in 1 Std. Schauer
Mo, 14.10. 3:50 keine Meldung -
Mo, 14.10. 3:20 keine Meldung -
Mo, 14.10. 3:00 0.0 l/m2 in 1 Std. Schauer
Mo, 14.10. 2:50 keine Meldung -
Mo, 14.10. 2:20 keine Meldung -
Mo, 14.10. 2:00 0.1 l/m2 in 1 Std. Regenschauer
Mo, 14.10. 1:20 keine Meldung -
Mo, 14.10. 1:00 0.0 l/m2 in 1 Std. Schauer
Ortszeit Stärke Spitze Richtung
km/h Bft. km/h Grad Sektor
Mo, 14.10. 2:00 11 2 - 210° SW
So, 13.10. 20:00 11 2 - 130° SO
So, 13.10. 14:00 7 2 - 220° SW
So, 13.10. 8:00 4 1 - 240° SW
So, 13.10. 2:00 11 2 - 240° SW
Sa, 12.10. 20:00 14 3 - 230° SW
Sa, 12.10. 14:00 14 3 - 260° W
Sa, 12.10. 8:00 7 2 - 250° W
Ortszeit Stärke Spitze Richtung
km/h Bft. km/h Grad Sektor
Mo, 14.10. 4:20 11 2 - 210° SW
Mo, 14.10. 4:00 14 3 22 210° SW
Mo, 14.10. 3:50 15 3 - 200° S
Mo, 14.10. 3:20 11 2 - 200° S
Mo, 14.10. 3:00 11 2 22 210° SW
Mo, 14.10. 2:50 7 2 - 220° SW
Mo, 14.10. 2:20 11 2 - 200° S
Mo, 14.10. 2:00 11 2 18 210° SW
Mo, 14.10. 1:20 9 2 - 180° S
Mo, 14.10. 1:00 7 2 22 160° S
Ortszeit Untergrenze Bedeckung Gattung
total tief tief mittel hoch
Mo, 14.10. 2:00 120 m 8/8 5/8 - - -
So, 13.10. 20:00 90 m 8/8 8/8 - - -
So, 13.10. 14:00 540 m 4/8 2/8 - - -
So, 13.10. 8:00 4500 m 6/8 6/8 - - -
So, 13.10. 2:00 - 0/8 0/8 - - -
Sa, 12.10. 20:00 - 0/8 0/8 - - -
Sa, 12.10. 14:00 660 m 2/8 1/8 - - -
Sa, 12.10. 8:00 300 m 8/8 8/8 - - -
Ortszeit Bedeckungsgrad in Achtel und Wolkenuntergrenze
Mo, 14.10. 4:20 1-2(3600m)
Mo, 14.10. 4:00 3(1170m)
Mo, 14.10. 3:50 3-4(1140m) 5-7(3600m)
Mo, 14.10. 3:20 1-2(540m) 3-4(1020m) 8(2400m)
Mo, 14.10. 3:00 6(900m) 7(3300m)
Mo, 14.10. 2:50 3-4(810m) 5-7(3300m)
Mo, 14.10. 2:20 1-2(1020m) 5-7(3900m)
Mo, 14.10. 2:00 2(120m) 4(870m) 5(1350m)
Mo, 14.10. 1:20 5-7(180m) 5-7(240m) 8(3000m)
Mo, 14.10. 1:00 7(180m) 8(270m)
Ortszeit Luftdruck NN (hPa) Tendenz (hPa in 3 Std.)
Mo, 14.10. 2:00 1003 - 2,8
So, 13.10. 20:00 1011 - 2,1
So, 13.10. 14:00 1012 + 0,3
So, 13.10. 8:00 1011 + 1,0
So, 13.10. 2:00 1008 + 1,4
Sa, 12.10. 20:00 1005 + 1,2
Sa, 12.10. 14:00 1003 + 1,4
Sa, 12.10. 8:00 1000 + 1,7
Ortszeit Luftdruck NN (hPa) Tendenz (hPa in 3 Std.)
Mo, 14.10. 4:20 1003 keine Meldung
Mo, 14.10. 4:00 1003 - 0,5
Mo, 14.10. 3:50 1003 keine Meldung
Mo, 14.10. 3:20 1003 keine Meldung
Mo, 14.10. 3:00 1004 - 1,0
Mo, 14.10. 2:50 1003 keine Meldung
Mo, 14.10. 2:20 1003 keine Meldung
Mo, 14.10. 2:00 1003 - 2,8
Mo, 14.10. 1:20 1003 keine Meldung
Mo, 14.10. 1:00 1004 - 3,5
Ortszeit Schneehöhe (cm)
Mo, 14.10. 2:00 -
So, 13.10. 20:00 -
So, 13.10. 14:00 -
So, 13.10. 8:00 -
So, 13.10. 2:00 -
Sa, 12.10. 20:00 -
Sa, 12.10. 14:00 -
Sa, 12.10. 8:00 -
Ortszeit Schneehöhe (cm)
Mo, 14.10. 4:20 -
Mo, 14.10. 4:00 -
Mo, 14.10. 3:50 -
Mo, 14.10. 3:20 -
Mo, 14.10. 3:00 -
Mo, 14.10. 2:50 -
Mo, 14.10. 2:20 -
Mo, 14.10. 2:00 -
Mo, 14.10. 1:20 -
Mo, 14.10. 1:00 -
Link zu dieser Seite / Seite empfehlen

Das Wetter in ...